createdAt,value
2019-05-26T00:02:41.015Z,57.90
2019-05-26T00:07:43.765Z,58.00
2019-05-26T00:12:46.601Z,57.80
2019-05-26T00:17:49.269Z,58.00
2019-05-26T00:22:51.973Z,57.90
2019-05-26T00:27:54.774Z,58.30
2019-05-26T00:32:57.460Z,58.70
2019-05-26T00:38:00.281Z,58.20
2019-05-26T00:43:03.158Z,58.90
2019-05-26T00:48:06.040Z,58.90
2019-05-26T00:53:08.842Z,59.20
2019-05-26T00:58:11.505Z,58.70
2019-05-26T01:03:14.311Z,58.90
2019-05-26T01:08:16.977Z,59.10
2019-05-26T01:13:19.641Z,59.50
2019-05-26T01:18:22.306Z,59.30
2019-05-26T01:23:24.983Z,59.50
2019-05-26T01:28:27.970Z,59.80
2019-05-26T01:33:31.340Z,59.60
2019-05-26T01:38:34.610Z,59.70
2019-05-26T01:43:37.268Z,60.00
2019-05-26T01:48:39.918Z,60.20
2019-05-26T01:53:42.599Z,60.20
2019-05-26T01:58:45.355Z,60.20
2019-05-26T02:03:48.090Z,60.30
2019-05-26T02:08:50.744Z,60.00
2019-05-26T02:13:53.474Z,60.00
2019-05-26T02:18:56.227Z,60.30
2019-05-26T02:23:58.983Z,60.20
2019-05-26T02:29:01.712Z,60.10
2019-05-26T02:34:04.453Z,60.40
2019-05-26T02:39:08.058Z,60.30
2019-05-26T02:44:10.793Z,60.60
2019-05-26T02:49:13.608Z,60.50
2019-05-26T02:54:16.351Z,60.70
2019-05-26T02:59:19.550Z,60.90
2019-05-26T03:04:22.527Z,61.20
2019-05-26T03:09:28.324Z,61.40
2019-05-26T03:14:33.990Z,62.20
2019-05-26T03:19:38.692Z,62.60
2019-05-26T03:24:44.168Z,62.80
2019-05-26T03:29:47.174Z,62.90
2019-05-26T03:34:50.130Z,63.10
2019-05-26T03:39:53.139Z,63.40
2019-05-26T03:44:56.210Z,64.20
2019-05-26T03:49:58.959Z,64.30
2019-05-26T03:55:01.687Z,64.40
2019-05-26T04:00:06.497Z,64.70
2019-05-26T04:05:10.085Z,64.70
2019-05-26T04:10:14.437Z,64.80
2019-05-26T04:15:17.243Z,64.80
2019-05-26T04:20:19.987Z,64.80
2019-05-26T04:25:22.726Z,64.80
2019-05-26T04:30:25.385Z,64.70
2019-05-26T04:35:28.055Z,64.90
2019-05-26T04:40:30.846Z,65.40
2019-05-26T04:45:33.613Z,65.10
2019-05-26T04:50:36.345Z,65.30
2019-05-26T04:55:39.008Z,65.40
2019-05-26T05:00:41.751Z,65.20
2019-05-26T05:05:44.468Z,65.20
2019-05-26T05:10:47.306Z,65.20
2019-05-26T05:15:49.978Z,65.10
2019-05-26T05:20:52.645Z,64.70
2019-05-26T05:25:55.317Z,64.40
2019-05-26T05:30:58.480Z,64.60
2019-05-26T05:36:01.136Z,64.40
2019-05-26T05:41:03.952Z,64.20
2019-05-26T05:46:06.629Z,64.20
2019-05-26T05:51:09.441Z,64.70
2019-05-26T05:56:12.110Z,65.00
2019-05-26T06:01:14.784Z,64.90
2019-05-26T06:06:17.470Z,65.00
2019-05-26T06:11:20.209Z,65.20
2019-05-26T06:16:23.266Z,64.90
2019-05-26T06:21:26.020Z,64.70
2019-05-26T06:26:28.791Z,64.80
2019-05-26T06:31:31.515Z,65.10
2019-05-26T06:36:34.237Z,64.70
2019-05-26T06:41:36.979Z,64.20
2019-05-26T06:46:39.709Z,63.00
2019-05-26T06:51:42.367Z,63.40
2019-05-26T06:56:45.054Z,63.50
2019-05-26T07:01:47.823Z,63.00
2019-05-26T07:06:50.482Z,63.20
2019-05-26T07:11:59.116Z,63.60
2019-05-26T07:16:57.918Z,64.30
2019-05-26T07:22:00.648Z,63.50
2019-05-26T07:27:03.538Z,63.80
2019-05-26T07:32:06.280Z,63.40
2019-05-26T07:37:08.938Z,62.70
2019-05-26T07:42:11.702Z,63.20
2019-05-26T07:47:14.388Z,63.20
2019-05-26T07:52:17.486Z,63.30
2019-05-26T07:57:20.211Z,63.30
2019-05-26T08:02:22.957Z,62.50
2019-05-26T08:07:25.691Z,61.70
2019-05-26T08:12:30.568Z,62.20
2019-05-26T08:17:33.121Z,61.90
2019-05-26T08:22:35.801Z,62.20
2019-05-26T08:27:38.586Z,61.50
2019-05-26T08:32:41.642Z,61.80
2019-05-26T08:37:44.324Z,61.20
2019-05-26T08:42:51.382Z,60.70
2019-05-26T08:47:54.422Z,60.70
2019-05-26T08:52:57.215Z,61.40
2019-05-26T08:57:59.892Z,60.60
2019-05-26T09:03:02.645Z,60.20
2019-05-26T09:08:08.143Z,60.00
2019-05-26T09:13:09.945Z,59.60
2019-05-26T09:18:12.644Z,58.90
2019-05-26T09:23:15.413Z,58.20
2019-05-26T09:28:18.451Z,58.40
2019-05-26T09:33:21.123Z,58.20
2019-05-26T09:38:23.796Z,57.70
2019-05-26T09:43:26.483Z,56.50
2019-05-26T09:48:29.204Z,56.10
2019-05-26T09:53:31.866Z,56.10
2019-05-26T09:58:34.563Z,56.80
2019-05-26T10:03:37.267Z,55.60
2019-05-26T10:08:39.943Z,54.70
2019-05-26T10:13:42.680Z,55.30
2019-05-26T10:18:45.421Z,54.30
2019-05-26T10:23:48.077Z,54.50
2019-05-26T10:28:51.160Z,53.20
2019-05-26T10:33:56.750Z,52.60
2019-05-26T10:38:59.410Z,51.40
2019-05-26T10:44:02.144Z,50.50
2019-05-26T10:49:04.887Z,48.80
2019-05-26T10:54:07.631Z,48.10
2019-05-26T10:59:10.370Z,47.70
2019-05-26T11:04:13.101Z,47.80
2019-05-26T11:09:16.080Z,48.20
2019-05-26T11:14:18.811Z,48.00
2019-05-26T11:19:24.230Z,47.10
2019-05-26T11:24:26.902Z,47.40
2019-05-26T11:29:29.577Z,46.60
2019-05-26T11:34:32.383Z,47.30
2019-05-26T11:39:35.138Z,46.40
2019-05-26T11:44:37.877Z,47.20
2019-05-26T11:49:40.611Z,48.00
2019-05-26T11:54:43.353Z,47.40
2019-05-26T11:59:47.404Z,47.40
2019-05-26T12:04:50.381Z,47.90
2019-05-26T12:09:53.058Z,47.80
2019-05-26T12:14:55.708Z,47.20
2019-05-26T12:19:58.375Z,47.60
2019-05-26T12:25:01.044Z,46.80
2019-05-26T12:30:06.642Z,47.00
2019-05-26T12:35:09.844Z,48.40
2019-05-26T12:40:13.023Z,46.80
2019-05-26T12:45:16.521Z,47.00
2019-05-26T12:50:19.330Z,48.10
2019-05-26T12:55:22.063Z,47.30
2019-05-26T13:00:26.949Z,47.70
2019-05-26T13:05:29.682Z,47.60
2019-05-26T13:10:32.409Z,48.60
2019-05-26T13:15:35.069Z,48.90
2019-05-26T13:20:37.810Z,48.70
2019-05-26T13:25:40.787Z,50.00
2019-05-26T13:30:43.447Z,50.70
2019-05-26T13:35:46.380Z,50.70
2019-05-26T13:40:49.102Z,50.90
2019-05-26T13:45:51.854Z,50.50
2019-05-26T13:50:54.585Z,49.80
2019-05-26T13:55:57.247Z,49.20
2019-05-26T14:00:59.902Z,49.00
2019-05-26T14:06:02.753Z,48.00
2019-05-26T14:11:05.495Z,46.90
2019-05-26T14:16:08.222Z,47.50
2019-05-26T14:21:11.039Z,48.10
2019-05-26T14:26:14.068Z,46.20
2019-05-26T14:31:16.746Z,45.20
2019-05-26T14:36:19.425Z,45.10
2019-05-26T14:41:22.158Z,44.20
2019-05-26T14:46:44.245Z,43.90
2019-05-26T14:51:46.994Z,43.30
2019-05-26T14:56:49.727Z,43.90
2019-05-26T15:01:52.469Z,44.70
2019-05-26T15:06:55.202Z,44.40
2019-05-26T15:11:57.927Z,42.90
2019-05-26T15:17:00.580Z,43.40
2019-05-26T15:22:03.308Z,42.10
2019-05-26T15:27:06.056Z,42.40
2019-05-26T15:32:08.774Z,41.20
2019-05-26T15:37:12.034Z,40.30
2019-05-26T15:42:15.108Z,42.00
2019-05-26T15:47:17.773Z,43.10
2019-05-26T15:52:20.497Z,40.40
2019-05-26T15:57:23.727Z,39.90
2019-05-26T16:02:26.421Z,38.80
2019-05-26T16:07:29.145Z,39.00
2019-05-26T16:12:31.929Z,38.40
2019-05-26T16:17:34.714Z,37.60
2019-05-26T16:22:37.460Z,37.30
2019-05-26T16:27:40.237Z,39.30
2019-05-26T16:32:43.033Z,41.70
2019-05-26T16:37:45.885Z,44.00
2019-05-26T16:42:48.914Z,45.20
2019-05-26T16:47:51.641Z,46.80
2019-05-26T16:52:54.836Z,47.90
2019-05-26T16:57:57.699Z,48.90
2019-05-26T17:03:00.354Z,49.40
2019-05-26T17:08:03.436Z,49.50
2019-05-26T17:13:06.232Z,50.70
2019-05-26T17:18:08.896Z,51.30
2019-05-26T17:23:11.616Z,52.10
2019-05-26T17:28:14.294Z,53.00
2019-05-26T17:33:16.939Z,55.00
2019-05-26T17:38:19.876Z,57.40
2019-05-26T17:43:22.533Z,57.00
2019-05-26T17:48:25.214Z,55.80
2019-05-26T17:53:27.964Z,55.90
2019-05-26T17:58:30.695Z,54.90
2019-05-26T18:03:33.441Z,54.70
2019-05-26T18:08:36.812Z,54.40
2019-05-26T18:13:39.909Z,53.80
2019-05-26T18:18:42.570Z,53.60
2019-05-26T18:23:45.230Z,53.80
2019-05-26T18:28:47.902Z,53.80
2019-05-26T18:33:50.652Z,53.60
2019-05-26T18:38:53.320Z,53.70
2019-05-26T18:43:56.050Z,53.40
2019-05-26T18:48:59.106Z,54.10
2019-05-26T18:54:01.786Z,54.60
2019-05-26T18:59:05.149Z,54.50
2019-05-26T19:04:08.229Z,54.90
2019-05-26T19:09:11.323Z,55.10
2019-05-26T19:14:13.973Z,55.50
2019-05-26T19:19:16.697Z,55.50
2019-05-26T19:24:20.145Z,56.50
2019-05-26T19:29:22.813Z,56.60
2019-05-26T19:34:25.484Z,56.50
2019-05-26T19:39:28.215Z,56.40
2019-05-26T19:44:31.220Z,56.50
2019-05-26T19:49:34.237Z,56.10
2019-05-26T19:54:36.955Z,55.90
2019-05-26T19:59:39.624Z,55.90
2019-05-26T20:04:42.290Z,55.70
2019-05-26T20:09:45.035Z,55.30
2019-05-26T20:14:47.715Z,55.10
2019-05-26T20:19:50.450Z,55.50
2019-05-26T20:24:53.185Z,55.30
2019-05-26T20:29:55.849Z,55.00
2019-05-26T20:34:58.500Z,54.80
2019-05-26T20:40:01.172Z,54.80
2019-05-26T20:45:06.442Z,55.80
2019-05-26T20:50:10.355Z,55.50
2019-05-26T20:55:14.092Z,55.60
2019-05-26T21:00:17.591Z,56.20
2019-05-26T21:05:20.522Z,56.20
2019-05-26T21:10:23.352Z,56.10
2019-05-26T21:15:26.016Z,56.80
2019-05-26T21:20:28.670Z,57.30
2019-05-26T21:25:31.331Z,57.90
2019-05-26T21:30:33.998Z,59.20
2019-05-26T21:35:36.729Z,60.00
2019-05-26T21:40:40.131Z,61.80
2019-05-26T21:45:42.874Z,64.40
2019-05-26T21:50:45.530Z,67.00
2019-05-26T21:55:48.189Z,69.10
2019-05-26T22:00:51.728Z,70.30
2019-05-26T22:05:54.390Z,70.90
2019-05-26T22:10:57.115Z,71.50
2019-05-26T22:15:59.842Z,71.20
2019-05-26T22:21:02.574Z,71.90
2019-05-26T22:26:05.241Z,71.30
2019-05-26T22:31:08.240Z,71.40
2019-05-26T22:36:10.897Z,72.70
2019-05-26T22:41:13.551Z,72.00
2019-05-26T22:46:16.219Z,71.60
2019-05-26T22:51:19.328Z,72.40
2019-05-26T22:56:22.053Z,72.10
2019-05-26T23:01:24.794Z,72.20
2019-05-26T23:06:27.453Z,72.50
2019-05-26T23:11:30.122Z,72.70
2019-05-26T23:16:32.792Z,72.90
2019-05-26T23:21:35.523Z,73.50
2019-05-26T23:26:38.175Z,74.20
2019-05-26T23:31:40.840Z,74.10
2019-05-26T23:36:43.774Z,74.20
2019-05-26T23:41:46.435Z,74.70
2019-05-26T23:46:49.167Z,75.10
2019-05-26T23:51:51.822Z,73.90
2019-05-26T23:56:54.550Z,73.80
